createdAt,value
2019-05-07T00:00:00.037Z,7.17
2019-05-07T00:02:17.692Z,7.30
2019-05-07T00:04:25.140Z,8.10
2019-05-07T00:06:32.658Z,9.10
2019-05-07T00:08:39.990Z,9.70
2019-05-07T00:10:47.316Z,8.77
2019-05-07T00:12:55.029Z,8.10
2019-05-07T00:15:04.561Z,6.90
2019-05-07T00:17:13.097Z,7.63
2019-05-07T00:19:20.493Z,6.97
2019-05-07T00:21:27.833Z,7.33
2019-05-07T00:23:35.195Z,7.27
2019-05-07T00:25:42.406Z,7.50
2019-05-07T00:27:52.171Z,8.03
2019-05-07T00:29:58.842Z,7.17
2019-05-07T00:32:06.138Z,6.70
2019-05-07T00:34:14.644Z,7.57
2019-05-07T00:36:47.003Z,8.53
2019-05-07T00:39:00.209Z,9.50
2019-05-07T00:41:24.385Z,10.20
2019-05-07T00:43:34.915Z,10.40
2019-05-07T00:45:56.830Z,8.63
2019-05-07T00:48:03.523Z,8.17
2019-05-07T00:50:16.584Z,7.53
2019-05-07T00:52:23.923Z,7.23
2019-05-07T00:54:32.507Z,7.47
2019-05-07T00:56:39.913Z,7.50
2019-05-07T00:58:47.317Z,8.57
2019-05-07T01:00:54.626Z,9.33
2019-05-07T01:03:03.038Z,8.97
2019-05-07T01:05:12.289Z,8.60
2019-05-07T01:07:19.618Z,9.27
2019-05-07T01:09:26.930Z,9.83
2019-05-07T01:11:34.605Z,8.30
2019-05-07T01:13:43.201Z,8.23
2019-05-07T01:15:52.983Z,8.50
2019-05-07T01:17:59.519Z,8.93
2019-05-07T01:20:07.144Z,8.67
2019-05-07T01:22:14.494Z,9.00
2019-05-07T01:24:23.306Z,9.20
2019-05-07T01:26:32.950Z,8.33
2019-05-07T01:28:57.653Z,8.87
2019-05-07T01:31:05.069Z,8.33
2019-05-07T01:33:26.816Z,8.33
2019-05-07T01:35:52.882Z,9.73
2019-05-07T01:38:00.268Z,8.87
2019-05-07T01:40:07.645Z,8.43
2019-05-07T01:42:14.947Z,7.87
2019-05-07T01:44:22.324Z,8.47
2019-05-07T01:46:29.465Z,8.80
2019-05-07T01:48:36.791Z,9.23
2019-05-07T01:50:44.120Z,9.10
2019-05-07T01:52:52.236Z,8.27
2019-05-07T01:54:59.699Z,9.43
2019-05-07T01:57:07.116Z,9.00
2019-05-07T01:59:14.425Z,9.83
2019-05-07T02:01:22.185Z,8.63
2019-05-07T02:03:42.022Z,9.80
2019-05-07T02:05:54.624Z,8.37
2019-05-07T02:08:04.339Z,9.97
2019-05-07T02:10:33.505Z,8.37
2019-05-07T02:12:42.548Z,9.17
2019-05-07T02:14:49.961Z,8.37
2019-05-07T02:16:57.304Z,8.63
2019-05-07T02:19:04.963Z,9.53
2019-05-07T02:21:13.220Z,8.20
2019-05-07T02:23:22.183Z,9.23
2019-05-07T02:25:29.579Z,8.63
2019-05-07T02:27:36.853Z,9.23
2019-05-07T02:29:44.358Z,9.07
2019-05-07T02:31:53.113Z,8.97
2019-05-07T02:34:02.819Z,9.30
2019-05-07T02:36:09.700Z,8.47
2019-05-07T02:38:33.662Z,10.67
2019-05-07T02:40:53.374Z,9.80
2019-05-07T02:43:02.683Z,11.10
2019-05-07T02:45:26.769Z,11.27
2019-05-07T02:47:34.948Z,10.23
2019-05-07T02:49:49.258Z,10.80
2019-05-07T02:52:04.815Z,10.23
2019-05-07T02:54:26.964Z,9.43
2019-05-07T02:56:34.126Z,8.83
2019-05-07T02:58:43.388Z,8.83
2019-05-07T03:00:52.977Z,8.60
2019-05-07T03:02:59.383Z,9.20
2019-05-07T03:05:07.132Z,8.43
2019-05-07T03:07:14.503Z,10.30
2019-05-07T03:09:22.745Z,9.17
2019-05-07T03:11:33.650Z,8.67
2019-05-07T03:13:39.603Z,9.13
2019-05-07T03:15:47.121Z,9.50
2019-05-07T03:17:54.429Z,9.67
2019-05-07T03:20:04.106Z,9.83
2019-05-07T03:22:14.019Z,9.63
2019-05-07T03:24:39.131Z,9.53
2019-05-07T03:26:47.134Z,9.50
2019-05-07T03:28:56.735Z,10.60
2019-05-07T03:31:16.586Z,9.93
2019-05-07T03:33:47.155Z,10.33
2019-05-07T03:35:56.250Z,11.33
2019-05-07T03:38:03.681Z,10.40
2019-05-07T03:40:14.081Z,10.20
2019-05-07T03:42:23.407Z,9.90
2019-05-07T03:44:48.002Z,9.27
2019-05-07T03:47:02.334Z,9.33
2019-05-07T03:49:07.448Z,9.63
2019-05-07T03:51:14.719Z,9.20
2019-05-07T03:53:22.999Z,8.83
2019-05-07T03:55:33.240Z,8.80
2019-05-07T03:57:39.835Z,8.87
2019-05-07T03:59:48.021Z,9.67
2019-05-07T04:01:55.263Z,8.67
2019-05-07T04:04:03.761Z,9.57
2019-05-07T04:06:12.752Z,9.13
2019-05-07T04:08:23.312Z,9.63
2019-05-07T04:10:29.084Z,9.40
2019-05-07T04:12:36.349Z,9.27
2019-05-07T04:14:43.764Z,8.90
2019-05-07T04:16:53.608Z,9.20
2019-05-07T04:19:03.648Z,9.07
2019-05-07T04:21:09.299Z,9.30
2019-05-07T04:23:16.716Z,9.10
2019-05-07T04:25:39.533Z,8.80
2019-05-07T04:28:03.821Z,9.83
2019-05-07T04:30:12.923Z,9.80
2019-05-07T04:32:23.153Z,8.83
2019-05-07T04:34:58.378Z,10.17
2019-05-07T04:37:05.680Z,9.07
2019-05-07T04:39:13.510Z,8.70
2019-05-07T04:41:23.383Z,9.30
2019-05-07T04:43:29.968Z,9.00
2019-05-07T04:45:37.255Z,9.80
2019-05-07T04:47:47.827Z,9.73
2019-05-07T04:49:53.880Z,9.73
2019-05-07T04:52:06.418Z,9.77
2019-05-07T04:54:13.790Z,9.33
2019-05-07T04:56:23.953Z,9.57
2019-05-07T04:58:30.215Z,8.37
2019-05-07T05:00:37.712Z,9.37
2019-05-07T05:03:03.795Z,8.67
2019-05-07T05:05:12.851Z,10.77
2019-05-07T05:07:22.484Z,9.43
2019-05-07T05:09:29.475Z,9.10
2019-05-07T05:11:36.962Z,8.13
2019-05-07T05:13:45.020Z,8.17
2019-05-07T05:15:52.821Z,9.17
2019-05-07T05:18:02.433Z,8.80
2019-05-07T05:20:10.211Z,8.97
2019-05-07T05:22:39.193Z,8.53
2019-05-07T05:24:49.441Z,7.97
2019-05-07T05:26:56.711Z,8.67
2019-05-07T05:29:04.012Z,8.80
2019-05-07T05:31:12.645Z,9.03
2019-05-07T05:33:20.178Z,10.50
2019-05-07T05:35:27.535Z,9.50
2019-05-07T05:37:34.829Z,9.80
2019-05-07T05:39:42.814Z,9.43
2019-05-07T05:41:53.444Z,8.57
2019-05-07T05:44:19.509Z,9.10
2019-05-07T05:46:28.405Z,9.17
2019-05-07T05:48:35.784Z,9.20
2019-05-07T05:50:53.617Z,9.27
2019-05-07T05:53:09.781Z,8.37
2019-05-07T05:55:20.055Z,8.57
2019-05-07T05:57:45.063Z,8.57
2019-05-07T06:00:12.654Z,9.87
2019-05-07T06:02:37.685Z,9.40
2019-05-07T06:04:58.842Z,8.83
2019-05-07T06:07:14.593Z,8.57
2019-05-07T06:09:29.310Z,8.53
2019-05-07T06:11:58.428Z,7.87
2019-05-07T06:14:33.976Z,8.90
2019-05-07T06:16:47.153Z,8.10
2019-05-07T06:19:13.213Z,9.60
2019-05-07T06:21:32.281Z,7.60
2019-05-07T06:23:44.827Z,7.23
2019-05-07T06:25:52.420Z,7.67
2019-05-07T06:28:01.807Z,7.07
2019-05-07T06:30:12.102Z,7.60
2019-05-07T06:32:22.763Z,6.60
2019-05-07T06:34:29.897Z,6.70
2019-05-07T06:36:38.852Z,6.67
2019-05-07T06:38:53.092Z,5.83
2019-05-07T06:41:19.269Z,6.17
2019-05-07T06:43:48.102Z,6.73
2019-05-07T06:45:57.064Z,5.50
2019-05-07T06:48:04.336Z,6.00
2019-05-07T06:50:12.557Z,5.77
2019-05-07T06:52:19.916Z,5.70
2019-05-07T06:54:27.316Z,4.23
2019-05-07T06:56:34.601Z,4.53
2019-05-07T06:58:52.476Z,5.50
2019-05-07T07:01:18.357Z,5.20
2019-05-07T07:03:35.696Z,5.30
2019-05-07T07:06:04.168Z,5.60
2019-05-07T07:08:23.036Z,4.87
2019-05-07T07:10:47.770Z,5.60
2019-05-07T07:12:55.270Z,5.40
2019-05-07T07:15:02.868Z,4.17
2019-05-07T07:17:12.770Z,3.93
2019-05-07T07:19:19.515Z,4.87
2019-05-07T07:21:26.742Z,4.23
2019-05-07T07:23:34.371Z,5.00
2019-05-07T07:25:42.993Z,4.80
2019-05-07T07:27:52.071Z,4.47
2019-05-07T07:30:21.836Z,4.53
2019-05-07T07:32:35.119Z,4.10
2019-05-07T07:34:47.703Z,4.03
2019-05-07T07:37:06.032Z,4.60
2019-05-07T07:39:12.572Z,4.10
2019-05-07T07:41:34.148Z,4.60
2019-05-07T07:43:42.015Z,4.53
2019-05-07T07:45:49.395Z,3.53
2019-05-07T07:47:56.781Z,3.97
2019-05-07T07:50:04.168Z,3.30
2019-05-07T07:52:12.218Z,4.20
2019-05-07T07:54:19.715Z,3.77
2019-05-07T07:56:56.131Z,4.53
2019-05-07T07:59:12.643Z,11.30
2019-05-07T08:01:42.231Z,4.50
2019-05-07T08:03:49.698Z,5.00
2019-05-07T08:05:56.982Z,5.20
2019-05-07T08:08:04.444Z,7.20
2019-05-07T08:10:12.988Z,26.73
2019-05-07T08:12:22.136Z,58.10
2019-05-07T08:14:29.771Z,60.30
2019-05-07T08:16:37.344Z,57.57
2019-05-07T08:18:44.856Z,57.10
2019-05-07T08:20:52.122Z,4.47
2019-05-07T08:22:59.373Z,3.90
2019-05-07T08:25:08.324Z,3.07
2019-05-07T08:27:15.700Z,3.33
2019-05-07T08:29:22.974Z,3.50
2019-05-07T08:31:46.986Z,3.60
2019-05-07T08:34:03.315Z,3.33
2019-05-07T08:36:18.474Z,3.40
2019-05-07T08:38:25.759Z,3.20
2019-05-07T08:40:33.349Z,3.27
2019-05-07T08:42:41.892Z,3.33
2019-05-07T08:44:59.992Z,3.77
2019-05-07T08:47:29.253Z,3.67
2019-05-07T08:49:40.097Z,3.70
2019-05-07T08:51:51.935Z,3.60
2019-05-07T08:54:05.835Z,3.67
2019-05-07T08:56:13.234Z,4.67
2019-05-07T08:58:22.397Z,4.50
2019-05-07T09:00:32.443Z,4.70
2019-05-07T09:02:39.616Z,4.00
2019-05-07T09:04:46.956Z,4.00
2019-05-07T09:06:54.684Z,4.13
2019-05-07T09:09:02.963Z,4.17
2019-05-07T09:11:10.668Z,4.03
2019-05-07T09:13:18.289Z,3.00
2019-05-07T09:15:25.535Z,3.30
2019-05-07T09:17:32.746Z,3.43
2019-05-07T09:19:48.365Z,3.33
2019-05-07T09:21:49.207Z,3.33
2019-05-07T09:23:56.645Z,3.80
2019-05-07T09:26:04.030Z,3.40
2019-05-07T09:28:11.906Z,3.30
2019-05-07T09:30:32.525Z,2.80
2019-05-07T09:33:05.500Z,2.60
2019-05-07T09:35:16.268Z,3.00
2019-05-07T09:37:26.590Z,2.50
2019-05-07T09:39:34.071Z,3.30
2019-05-07T09:41:41.805Z,2.77
2019-05-07T09:43:49.360Z,2.40
2019-05-07T09:45:57.239Z,3.13
2019-05-07T09:48:05.246Z,2.50
2019-05-07T09:50:12.955Z,3.27
2019-05-07T09:52:22.667Z,3.10
2019-05-07T09:54:29.234Z,2.77
2019-05-07T09:56:36.560Z,2.67
2019-05-07T09:58:43.984Z,3.20
2019-05-07T10:00:51.252Z,3.60
2019-05-07T10:02:58.810Z,2.87
2019-05-07T10:05:06.821Z,2.85
2019-05-07T10:07:14.244Z,2.50
2019-05-07T10:09:22.318Z,2.97
2019-05-07T10:11:36.411Z,3.00
2019-05-07T10:13:48.632Z,2.60
2019-05-07T10:15:56.190Z,3.10
2019-05-07T10:18:14.943Z,2.93
2019-05-07T10:20:24.329Z,3.50
2019-05-07T10:22:32.259Z,2.80
2019-05-07T10:24:41.782Z,3.37
2019-05-07T10:26:49.180Z,3.00
2019-05-07T10:28:57.327Z,3.30
2019-05-07T10:31:04.729Z,3.10
2019-05-07T10:33:12.450Z,3.07
2019-05-07T10:35:20.122Z,2.90
2019-05-07T10:37:27.412Z,3.30
2019-05-07T10:39:34.918Z,3.17
2019-05-07T10:41:42.567Z,3.63
2019-05-07T10:43:51.905Z,3.37
2019-05-07T10:46:18.040Z,3.50
2019-05-07T10:48:42.702Z,3.90
2019-05-07T10:50:51.742Z,4.30
2019-05-07T10:52:59.186Z,3.60
2019-05-07T10:55:06.878Z,4.07
2019-05-07T10:57:14.046Z,3.40
2019-05-07T10:59:22.520Z,3.63
2019-05-07T11:01:38.918Z,3.10
2019-05-07T11:03:46.843Z,3.72
2019-05-07T11:05:54.650Z,3.27
2019-05-07T11:08:02.459Z,3.37
2019-05-07T11:10:12.207Z,3.70
2019-05-07T11:12:19.219Z,3.17
2019-05-07T11:14:26.429Z,3.13
2019-05-07T11:16:38.705Z,3.50
2019-05-07T11:18:51.799Z,3.27
2019-05-07T11:20:59.200Z,3.07
2019-05-07T11:23:06.645Z,3.33
2019-05-07T11:25:14.273Z,3.37
2019-05-07T11:27:22.510Z,3.20
2019-05-07T11:29:30.023Z,3.30
2019-05-07T11:31:37.372Z,3.50
2019-05-07T11:33:44.693Z,3.43
2019-05-07T11:35:52.764Z,3.40
2019-05-07T11:38:03.782Z,3.30
2019-05-07T11:40:13.077Z,3.30
2019-05-07T11:42:45.064Z,4.00
2019-05-07T11:44:54.938Z,3.80
2019-05-07T11:47:18.769Z,3.90
2019-05-07T11:49:32.725Z,3.40
2019-05-07T11:51:45.253Z,3.45
2019-05-07T11:54:12.742Z,3.87
2019-05-07T11:56:21.980Z,2.93
2019-05-07T11:58:29.755Z,3.40
2019-05-07T12:01:12.513Z,3.50
2019-05-07T12:03:22.139Z,3.30
2019-05-07T12:05:29.608Z,3.50
2019-05-07T12:07:36.986Z,3.60
2019-05-07T12:09:44.503Z,3.30
2019-05-07T12:11:52.113Z,3.07
2019-05-07T12:13:59.554Z,3.20
2019-05-07T12:16:07.106Z,3.08
2019-05-07T12:18:14.493Z,3.77
2019-05-07T12:20:22.422Z,3.27
2019-05-07T12:22:47.842Z,3.43
2019-05-07T12:24:55.198Z,4.77
2019-05-07T12:27:02.914Z,5.27
2019-05-07T12:29:11.833Z,4.30
2019-05-07T12:31:38.170Z,3.43
2019-05-07T12:34:05.235Z,3.50
2019-05-07T12:36:13.481Z,3.63
2019-05-07T12:38:21.956Z,3.57
2019-05-07T12:40:32.507Z,4.40
2019-05-07T12:42:42.422Z,4.37
2019-05-07T12:44:49.259Z,4.17
2019-05-07T12:46:56.522Z,4.20
2019-05-07T12:49:04.267Z,3.70
2019-05-07T12:51:12.577Z,3.40
2019-05-07T12:53:42.461Z,3.33
2019-05-07T12:55:56.311Z,3.80
2019-05-07T12:58:03.753Z,3.80
2019-05-07T13:00:32.331Z,3.17
2019-05-07T13:02:46.453Z,3.57
2019-05-07T13:04:53.824Z,3.60
2019-05-07T13:07:08.025Z,2.40
2019-05-07T13:09:15.882Z,3.00
2019-05-07T13:11:23.254Z,3.07
2019-05-07T13:13:32.040Z,3.00
2019-05-07T13:15:39.630Z,2.90
2019-05-07T13:17:47.062Z,3.10
2019-05-07T13:19:54.555Z,3.00
2019-05-07T13:22:05.203Z,3.30
2019-05-07T13:24:18.375Z,3.10
2019-05-07T13:26:24.916Z,3.00
2019-05-07T13:28:32.398Z,2.80
2019-05-07T13:30:43.588Z,2.70
2019-05-07T13:32:52.606Z,2.77
2019-05-07T13:35:02.787Z,3.10
2019-05-07T13:37:15.691Z,2.90
2019-05-07T13:39:48.205Z,2.83
2019-05-07T13:42:04.474Z,3.13
2019-05-07T13:44:40.229Z,3.47
2019-05-07T13:46:49.684Z,2.83
2019-05-07T13:48:57.290Z,6.73
2019-05-07T13:51:05.723Z,4.30
2019-05-07T13:53:13.581Z,3.53
2019-05-07T13:55:21.853Z,2.60
2019-05-07T13:57:29.473Z,2.67
2019-05-07T13:59:37.377Z,2.87
2019-05-07T14:01:55.476Z,2.50
2019-05-07T14:04:04.101Z,2.70
2019-05-07T14:06:13.245Z,3.13
2019-05-07T14:08:23.048Z,2.70
2019-05-07T14:10:33.552Z,2.70
2019-05-07T14:12:39.771Z,2.60
2019-05-07T14:14:47.693Z,2.40
2019-05-07T14:16:55.110Z,2.50
2019-05-07T14:19:04.212Z,2.40
2019-05-07T14:21:13.030Z,2.80
2019-05-07T14:23:21.760Z,3.20
2019-05-07T14:25:29.148Z,2.70
2019-05-07T14:27:36.591Z,2.03
2019-05-07T14:29:44.057Z,1.90
2019-05-07T14:31:58.607Z,1.70
2019-05-07T14:34:18.925Z,2.17
2019-05-07T14:36:42.633Z,1.80
2019-05-07T14:38:52.009Z,2.40
2019-05-07T14:41:00.137Z,2.20
2019-05-07T14:43:13.231Z,3.60
2019-05-07T14:45:23.554Z,2.30
2019-05-07T14:47:30.212Z,2.23
2019-05-07T14:49:37.686Z,2.17
2019-05-07T14:51:45.210Z,2.30
2019-05-07T14:53:52.785Z,2.20
2019-05-07T14:56:00.308Z,2.60
2019-05-07T14:58:07.668Z,2.73
2019-05-07T15:00:16.045Z,2.20
2019-05-07T15:02:23.939Z,2.20
2019-05-07T15:04:31.471Z,2.40
2019-05-07T15:06:39.316Z,2.10
2019-05-07T15:08:47.258Z,2.07
2019-05-07T15:10:55.052Z,2.00
2019-05-07T15:13:02.824Z,2.00
2019-05-07T15:15:12.648Z,1.83
2019-05-07T15:17:39.333Z,2.10
2019-05-07T15:19:47.034Z,2.55
2019-05-07T15:21:58.423Z,2.20
2019-05-07T15:24:05.998Z,2.30
2019-05-07T15:26:13.535Z,2.00
2019-05-07T15:28:22.845Z,2.20
2019-05-07T15:30:37.655Z,2.60
2019-05-07T15:32:45.022Z,2.63
2019-05-07T15:34:52.760Z,2.10
2019-05-07T15:37:01.647Z,2.43
2019-05-07T15:39:09.380Z,2.47
2019-05-07T15:41:17.036Z,2.10
2019-05-07T15:43:24.397Z,2.20
2019-05-07T15:45:32.195Z,2.10
2019-05-07T15:47:44.137Z,2.00
2019-05-07T15:49:51.474Z,2.20
2019-05-07T15:52:01.819Z,2.27
2019-05-07T15:54:09.774Z,2.40
2019-05-07T15:56:17.611Z,2.50
2019-05-07T15:58:24.994Z,3.53
2019-05-07T16:00:33.868Z,5.43
2019-05-07T16:02:45.327Z,2.80
2019-05-07T16:04:53.580Z,2.63
2019-05-07T16:07:05.146Z,4.47
2019-05-07T16:09:12.863Z,6.23
2019-05-07T16:11:23.043Z,42.37
2019-05-07T16:13:32.768Z,79.47
2019-05-07T16:15:42.327Z,110.43
2019-05-07T16:17:58.119Z,162.00
2019-05-07T16:20:06.929Z,134.20
2019-05-07T16:22:19.512Z,222.63
2019-05-07T16:24:26.851Z,10.80
2019-05-07T16:26:34.286Z,8.37
2019-05-07T16:28:41.775Z,2.87
2019-05-07T16:30:49.217Z,2.60
2019-05-07T16:32:56.698Z,3.03
2019-05-07T16:35:05.685Z,2.10
2019-05-07T16:37:14.017Z,2.80
2019-05-07T16:39:22.156Z,2.10
2019-05-07T16:41:31.640Z,3.50
2019-05-07T16:43:39.252Z,6.37
2019-05-07T16:45:47.051Z,3.70
2019-05-07T16:47:55.022Z,3.63
2019-05-07T16:50:04.202Z,3.33
2019-05-07T16:52:12.059Z,2.97
2019-05-07T16:54:19.523Z,2.30
2019-05-07T16:56:27.183Z,2.40
2019-05-07T16:58:42.762Z,3.77
2019-05-07T17:00:53.211Z,5.00
2019-05-07T17:03:02.228Z,2.70
2019-05-07T17:05:13.999Z,2.47
2019-05-07T17:07:22.069Z,2.30
2019-05-07T17:09:32.226Z,2.40
2019-05-07T17:11:39.947Z,2.47
2019-05-07T17:13:47.685Z,1.87
2019-05-07T17:15:56.481Z,2.07
2019-05-07T17:18:03.937Z,2.73
2019-05-07T17:20:12.729Z,2.53
2019-05-07T17:22:22.600Z,2.93
2019-05-07T17:24:29.335Z,2.67
2019-05-07T17:26:36.847Z,2.57
2019-05-07T17:28:44.639Z,2.37
2019-05-07T17:30:52.526Z,2.43
2019-05-07T17:33:01.943Z,2.73
2019-05-07T17:35:09.267Z,2.43
2019-05-07T17:37:16.586Z,2.90
2019-05-07T17:39:24.205Z,3.17
2019-05-07T17:41:32.387Z,2.80
2019-05-07T17:43:40.387Z,2.80
2019-05-07T17:45:48.429Z,3.03
2019-05-07T17:47:56.224Z,3.83
2019-05-07T17:50:05.777Z,3.80
2019-05-07T17:52:13.091Z,3.10
2019-05-07T17:54:22.462Z,3.90
2019-05-07T17:56:31.916Z,3.40
2019-05-07T17:58:38.999Z,4.10
2019-05-07T18:00:48.806Z,2.90
2019-05-07T18:03:13.802Z,3.20
2019-05-07T18:05:21.501Z,3.63
2019-05-07T18:07:28.988Z,3.40
2019-05-07T18:09:36.598Z,3.57
2019-05-07T18:11:44.158Z,3.40
2019-05-07T18:13:52.691Z,2.80
2019-05-07T18:16:07.007Z,3.83
2019-05-07T18:18:15.612Z,3.07
2019-05-07T18:20:23.212Z,3.93
2019-05-07T18:22:32.546Z,4.37
2019-05-07T18:24:41.928Z,28.47
2019-05-07T18:26:49.570Z,49.83
2019-05-07T18:28:57.002Z,34.73
2019-05-07T18:31:04.528Z,38.27
2019-05-07T18:33:30.088Z,56.07
2019-05-07T18:35:37.557Z,35.07
2019-05-07T18:37:54.008Z,44.07
2019-05-07T18:40:02.545Z,27.80
2019-05-07T18:42:10.290Z,21.57
2019-05-07T18:44:17.850Z,23.90
2019-05-07T18:46:25.385Z,17.50
2019-05-07T18:48:32.760Z,14.90
2019-05-07T18:50:41.945Z,16.33
2019-05-07T18:52:49.574Z,11.97
2019-05-07T18:54:57.366Z,10.00
2019-05-07T18:57:05.341Z,9.93
2019-05-07T18:59:13.904Z,10.00
2019-05-07T19:01:23.739Z,16.07
2019-05-07T19:03:32.472Z,20.40
2019-05-07T19:05:42.298Z,9.93
2019-05-07T19:08:02.388Z,8.20
2019-05-07T19:09:59.088Z,6.90
2019-05-07T19:12:08.037Z,8.60
2019-05-07T19:14:15.472Z,8.47
2019-05-07T19:16:23.165Z,8.00
2019-05-07T19:18:32.209Z,8.40
2019-05-07T19:20:42.000Z,9.60
2019-05-07T19:22:51.724Z,9.60
2019-05-07T19:24:59.742Z,9.23
2019-05-07T19:27:07.898Z,12.03
2019-05-07T19:29:15.805Z,19.20
2019-05-07T19:31:23.415Z,14.77
2019-05-07T19:33:32.503Z,11.67
2019-05-07T19:35:41.884Z,10.53
2019-05-07T19:37:49.486Z,11.07
2019-05-07T19:39:56.954Z,19.07
2019-05-07T19:42:04.484Z,26.37
2019-05-07T19:44:12.773Z,33.47
2019-05-07T19:46:22.679Z,42.33
2019-05-07T19:48:32.152Z,38.67
2019-05-07T19:50:39.074Z,38.47
2019-05-07T19:52:46.551Z,37.03
2019-05-07T19:55:00.903Z,33.83
2019-05-07T19:57:04.197Z,29.60
2019-05-07T19:59:12.613Z,26.97
2019-05-07T20:01:24.680Z,26.23
2019-05-07T20:03:32.420Z,24.97
2019-05-07T20:05:41.945Z,22.13
2019-05-07T20:07:53.351Z,22.77
2019-05-07T20:09:59.204Z,18.63
2019-05-07T20:12:08.110Z,17.97
2019-05-07T20:14:15.895Z,17.07
2019-05-07T20:16:23.854Z,16.27
2019-05-07T20:18:33.092Z,17.73
2019-05-07T20:20:42.403Z,21.20
2019-05-07T20:22:51.747Z,26.60
2019-05-07T20:25:12.378Z,43.60
2019-05-07T20:27:08.517Z,27.43
2019-05-07T20:29:16.053Z,59.33
2019-05-07T20:31:23.546Z,51.40
2019-05-07T20:33:33.072Z,42.67
2019-05-07T20:35:41.848Z,36.27
2019-05-07T20:37:49.203Z,43.50
2019-05-07T20:39:56.699Z,70.83
2019-05-07T20:42:04.305Z,74.63
2019-05-07T20:44:12.127Z,66.40
2019-05-07T20:46:20.065Z,57.83
2019-05-07T20:48:28.019Z,46.60
2019-05-07T20:50:35.466Z,36.33
2019-05-07T20:52:43.315Z,29.77
2019-05-07T20:55:06.792Z,43.67
2019-05-07T20:57:23.168Z,37.83
2019-05-07T20:59:32.795Z,29.67
2019-05-07T21:01:41.948Z,30.83
2019-05-07T21:03:52.576Z,28.10
2019-05-07T21:05:59.364Z,29.30
2019-05-07T21:08:06.654Z,32.77
2019-05-07T21:10:14.324Z,31.63
2019-05-07T21:12:22.467Z,30.87
2019-05-07T21:14:32.271Z,33.00
2019-05-07T21:16:39.270Z,39.17
2019-05-07T21:18:46.689Z,44.10
2019-05-07T21:20:54.140Z,41.70
2019-05-07T21:23:02.706Z,38.00
2019-05-07T21:25:11.988Z,44.23
2019-05-07T21:27:19.581Z,37.30
2019-05-07T21:29:26.987Z,42.23
2019-05-07T21:31:34.415Z,46.23
2019-05-07T21:33:42.890Z,51.00
2019-05-07T21:35:52.278Z,51.03
2019-05-07T21:38:00.061Z,54.13
2019-05-07T21:40:07.534Z,49.53
2019-05-07T21:42:15.785Z,53.30
2019-05-07T21:44:25.336Z,55.10
2019-05-07T21:46:32.970Z,87.90
2019-05-07T21:48:40.565Z,92.50
2019-05-07T21:50:47.926Z,87.90
2019-05-07T21:53:02.707Z,78.03
2019-05-07T21:55:34.592Z,72.07
2019-05-07T21:57:48.876Z,65.70
2019-05-07T22:00:14.224Z,59.47
2019-05-07T22:02:24.729Z,56.50
2019-05-07T22:04:32.176Z,53.77
2019-05-07T22:06:39.645Z,51.47
2019-05-07T22:08:47.084Z,51.13
2019-05-07T22:10:54.454Z,48.10
2019-05-07T22:13:03.256Z,46.03
2019-05-07T22:15:12.991Z,43.43
2019-05-07T22:17:21.907Z,43.30
2019-05-07T22:19:33.540Z,39.40
2019-05-07T22:21:38.756Z,39.70
2019-05-07T22:23:46.373Z,34.57
2019-05-07T22:25:53.974Z,32.97
2019-05-07T22:28:01.906Z,27.80
2019-05-07T22:30:13.194Z,25.60
2019-05-07T22:32:37.127Z,24.30
2019-05-07T22:34:58.175Z,22.83
2019-05-07T22:37:05.655Z,21.70
2019-05-07T22:39:13.076Z,23.50
2019-05-07T22:41:22.421Z,21.30
2019-05-07T22:43:31.706Z,21.93
2019-05-07T22:45:38.535Z,26.53
2019-05-07T22:47:45.948Z,30.07
2019-05-07T22:49:54.012Z,30.50
2019-05-07T22:52:02.327Z,29.13
2019-05-07T22:54:11.862Z,29.63
2019-05-07T22:56:31.977Z,31.53
2019-05-07T22:58:42.169Z,29.10
2019-05-07T23:00:57.456Z,57.37
2019-05-07T23:03:05.143Z,217.97
2019-05-07T23:05:12.863Z,201.60
2019-05-07T23:07:22.320Z,141.83
2019-05-07T23:09:29.300Z,110.27
2019-05-07T23:11:36.722Z,94.83
2019-05-07T23:13:44.112Z,38.83
2019-05-07T23:15:53.726Z,25.50
2019-05-07T23:18:04.181Z,49.00
2019-05-07T23:20:10.486Z,29.40
2019-05-07T23:22:17.846Z,36.87
2019-05-07T23:24:25.428Z,36.07
2019-05-07T23:26:46.579Z,39.03
2019-05-07T23:28:42.004Z,45.60
2019-05-07T23:30:51.695Z,43.63
2019-05-07T23:32:58.295Z,64.67
2019-05-07T23:35:05.702Z,53.87
2019-05-07T23:37:13.004Z,51.07
2019-05-07T23:39:22.111Z,56.30
2019-05-07T23:41:35.490Z,48.80
2019-05-07T23:43:42.810Z,68.93
2019-05-07T23:45:50.094Z,83.90
2019-05-07T23:47:57.420Z,84.43
2019-05-07T23:50:04.887Z,83.17
2019-05-07T23:52:12.928Z,74.57
2019-05-07T23:54:22.711Z,59.37
2019-05-07T23:56:29.231Z,60.17
2019-05-07T23:58:36.529Z,53.77
